createdAt,value
2022-08-25T00:04:35.658Z,61.56
2022-08-25T00:09:43.848Z,61.51
2022-08-25T00:14:50.690Z,61.59
2022-08-25T00:19:57.480Z,61.41
2022-08-25T00:25:04.132Z,61.45
2022-08-25T00:30:12.669Z,61.53
2022-08-25T00:35:24.255Z,61.51
2022-08-25T00:40:31.681Z,61.34
2022-08-25T00:45:38.700Z,61.40
2022-08-25T00:50:45.891Z,61.29
2022-08-25T00:55:54.031Z,61.50
2022-08-25T01:01:01.401Z,61.21
2022-08-25T01:06:10.520Z,61.40
2022-08-25T01:11:17.360Z,61.29
2022-08-25T01:16:24.190Z,61.36
2022-08-25T01:21:31.804Z,61.26
2022-08-25T01:26:38.449Z,61.30
2022-08-25T01:31:45.569Z,61.24
2022-08-25T01:36:52.572Z,61.22
2022-08-25T01:42:17.697Z,61.32
2022-08-25T01:47:24.703Z,61.20
2022-08-25T01:52:34.109Z,61.19
2022-08-25T01:57:40.889Z,61.15
2022-08-25T02:02:47.704Z,61.21
2022-08-25T02:08:02.291Z,61.12
2022-08-25T02:13:09.613Z,61.17
2022-08-25T02:18:16.409Z,61.13
2022-08-25T02:23:23.169Z,61.20
2022-08-25T02:28:30.217Z,61.32
2022-08-25T02:33:37.551Z,61.12
2022-08-25T02:38:44.399Z,61.09
2022-08-25T02:43:51.829Z,61.07
2022-08-25T02:48:58.959Z,61.11
2022-08-25T02:54:06.311Z,61.24
2022-08-25T02:59:13.134Z,61.07
2022-08-25T03:04:19.783Z,61.06
2022-08-25T03:09:26.659Z,61.06
2022-08-25T03:14:33.535Z,61.13
2022-08-25T03:19:40.713Z,61.18
2022-08-25T03:24:47.730Z,61.10
2022-08-25T03:29:56.009Z,61.10
2022-08-25T03:35:03.333Z,61.03
2022-08-25T03:40:15.289Z,61.00
2022-08-25T03:45:23.433Z,60.92
2022-08-25T03:50:30.180Z,60.96
2022-08-25T03:55:36.980Z,61.06
2022-08-25T04:00:44.752Z,60.99
2022-08-25T04:05:51.773Z,61.01
2022-08-25T04:10:58.799Z,60.82
2022-08-25T04:16:06.077Z,61.06
2022-08-25T04:21:13.379Z,61.01
2022-08-25T04:26:21.272Z,61.03
2022-08-25T04:31:28.324Z,60.92
2022-08-25T04:36:35.975Z,60.82
2022-08-25T04:41:42.521Z,60.79
2022-08-25T04:46:50.154Z,60.89
2022-08-25T04:51:57.875Z,60.90
2022-08-25T04:57:05.269Z,60.82
2022-08-25T05:02:11.973Z,60.78
2022-08-25T05:07:18.411Z,60.84
2022-08-25T05:12:25.009Z,60.88
2022-08-25T05:17:31.610Z,60.79
2022-08-25T05:22:38.309Z,60.76
2022-08-25T05:27:45.307Z,60.64
2022-08-25T05:32:52.280Z,60.68
2022-08-25T05:37:59.871Z,60.59
2022-08-25T05:43:06.638Z,60.63
2022-08-25T05:48:13.330Z,60.61
2022-08-25T05:53:20.112Z,60.60
2022-08-25T05:58:27.464Z,60.76
2022-08-25T06:03:34.222Z,60.63
2022-08-25T06:08:41.300Z,60.53
2022-08-25T06:13:48.152Z,60.50
2022-08-25T06:18:55.884Z,60.51
2022-08-25T06:24:02.570Z,60.66
2022-08-25T06:29:09.474Z,60.52
2022-08-25T06:34:16.214Z,60.73
2022-08-25T06:39:22.816Z,60.44
2022-08-25T06:44:29.864Z,60.45
2022-08-25T06:49:36.565Z,60.32
2022-08-25T06:54:43.331Z,60.51
2022-08-25T06:59:53.352Z,60.50
2022-08-25T07:05:00.941Z,60.36
2022-08-25T07:10:08.630Z,60.50
2022-08-25T07:15:20.362Z,60.43
2022-08-25T07:20:27.666Z,60.31
2022-08-25T07:25:35.314Z,60.59
2022-08-25T07:30:42.400Z,60.37
2022-08-25T07:35:49.159Z,60.26
2022-08-25T07:41:03.084Z,60.35
2022-08-25T07:46:10.168Z,60.33
2022-08-25T07:51:17.838Z,59.99
2022-08-25T07:56:24.685Z,60.20
2022-08-25T08:01:31.550Z,60.17
2022-08-25T08:06:38.360Z,60.18
2022-08-25T08:11:53.800Z,59.98
2022-08-25T08:17:01.181Z,60.22
2022-08-25T08:22:08.332Z,59.99
2022-08-25T08:27:15.551Z,59.94
2022-08-25T08:32:35.421Z,59.90
2022-08-25T08:37:53.973Z,59.86
2022-08-25T08:43:06.484Z,59.91
2022-08-25T08:48:29.011Z,59.87
2022-08-25T08:53:41.734Z,59.78
2022-08-25T08:58:50.515Z,59.83
2022-08-25T09:04:00.750Z,59.77
2022-08-25T09:09:07.839Z,59.78
2022-08-25T09:14:22.275Z,59.53
2022-08-25T09:19:57.891Z,59.74
2022-08-25T09:25:08.755Z,59.43
2022-08-25T09:30:18.515Z,59.32
2022-08-25T09:35:28.000Z,59.58
2022-08-25T09:40:35.948Z,59.59
2022-08-25T09:45:45.165Z,59.60
2022-08-25T09:50:52.945Z,59.66
2022-08-25T09:56:05.037Z,59.64
2022-08-25T10:01:16.114Z,59.61
2022-08-25T10:06:24.021Z,59.77
2022-08-25T10:11:50.011Z,59.81
2022-08-25T10:17:13.670Z,59.68
2022-08-25T10:22:27.184Z,59.80
2022-08-25T10:27:38.470Z,59.72
2022-08-25T10:33:00.178Z,59.53
2022-08-25T10:38:13.956Z,59.81
2022-08-25T10:43:40.105Z,59.82
2022-08-25T10:48:53.031Z,59.82
2022-08-25T10:54:06.298Z,59.74
2022-08-25T10:59:32.161Z,60.08
2022-08-25T11:04:40.621Z,59.95
2022-08-25T11:09:51.469Z,59.90
2022-08-25T11:14:59.869Z,59.99
2022-08-25T11:20:09.450Z,60.05
2022-08-25T11:25:21.558Z,59.84
2022-08-25T11:30:29.470Z,59.68
2022-08-25T11:35:39.125Z,59.85
2022-08-25T11:40:51.314Z,60.03
2022-08-25T11:46:03.061Z,59.61
2022-08-25T11:51:11.219Z,59.94
2022-08-25T11:56:34.709Z,59.81
2022-08-25T12:02:10.700Z,59.75
2022-08-25T12:07:24.834Z,59.58
2022-08-25T12:12:32.670Z,59.57
2022-08-25T12:17:40.900Z,59.50
2022-08-25T12:22:55.708Z,59.49
2022-08-25T12:28:09.352Z,59.47
2022-08-25T12:33:22.700Z,59.58
2022-08-25T12:38:37.037Z,59.26
2022-08-25T12:43:48.489Z,59.39
2022-08-25T12:49:00.970Z,59.33
2022-08-25T12:54:19.004Z,59.07
2022-08-25T12:59:37.434Z,59.19
2022-08-25T13:05:02.461Z,59.33
2022-08-25T13:10:17.538Z,59.12
2022-08-25T13:15:37.813Z,59.02
2022-08-25T13:20:44.880Z,58.81
2022-08-25T13:25:54.193Z,58.72
2022-08-25T13:31:07.435Z,58.78
2022-08-25T13:36:35.890Z,58.83
2022-08-25T13:41:45.736Z,58.60
2022-08-25T13:47:06.600Z,58.65
2022-08-25T13:52:19.143Z,58.47
2022-08-25T13:57:36.134Z,58.60
2022-08-25T14:02:52.109Z,58.39
2022-08-25T14:08:15.656Z,58.23
2022-08-25T14:13:33.670Z,58.42
2022-08-25T14:18:48.890Z,58.34
2022-08-25T14:23:56.451Z,58.29
2022-08-25T14:29:03.710Z,58.18
2022-08-25T14:34:17.270Z,58.08
2022-08-25T14:39:24.363Z,58.04
2022-08-25T14:44:31.131Z,58.05
2022-08-25T14:49:40.070Z,57.75
2022-08-25T14:54:47.410Z,58.04
2022-08-25T14:59:54.350Z,57.81
2022-08-25T15:05:06.229Z,57.78
2022-08-25T15:10:13.776Z,57.87
2022-08-25T15:15:20.839Z,58.03
2022-08-25T15:20:28.123Z,57.90
2022-08-25T15:25:36.044Z,57.95
2022-08-25T15:30:45.649Z,57.94
2022-08-25T15:35:53.611Z,57.90
2022-08-25T15:41:01.184Z,57.81
2022-08-25T15:46:10.023Z,57.93
2022-08-25T15:51:17.781Z,57.80
2022-08-25T15:56:26.917Z,57.87
2022-08-25T16:01:34.101Z,57.91
2022-08-25T16:06:41.011Z,57.65
2022-08-25T16:11:56.302Z,57.83
2022-08-25T16:17:05.893Z,57.81
2022-08-25T16:22:13.094Z,57.78
2022-08-25T16:27:19.893Z,57.77
2022-08-25T16:32:26.969Z,57.82
2022-08-25T16:37:34.050Z,57.75
2022-08-25T16:42:40.800Z,57.91
2022-08-25T16:47:47.558Z,57.62
2022-08-25T16:53:12.145Z,57.61
2022-08-25T16:58:18.974Z,57.81
2022-08-25T17:03:26.300Z,57.92
2022-08-25T17:08:36.492Z,57.92
2022-08-25T17:13:44.497Z,58.05
2022-08-25T17:18:51.344Z,57.71
2022-08-25T17:23:58.819Z,57.76
2022-08-25T17:29:05.661Z,57.85
2022-08-25T17:34:16.500Z,57.90
2022-08-25T17:39:24.369Z,58.03
2022-08-25T17:44:31.170Z,57.87
2022-08-25T17:49:38.130Z,57.93
2022-08-25T17:54:44.809Z,57.92
2022-08-25T17:59:51.641Z,58.01
2022-08-25T18:04:58.400Z,57.91
2022-08-25T18:10:05.469Z,57.94
2022-08-25T18:15:14.194Z,58.32
2022-08-25T18:20:21.104Z,58.17
2022-08-25T18:25:29.044Z,58.13
2022-08-25T18:30:36.416Z,58.19
2022-08-25T18:35:43.679Z,58.23
2022-08-25T18:40:50.689Z,58.30
2022-08-25T18:45:59.817Z,58.15
2022-08-25T18:51:06.710Z,58.20
2022-08-25T18:56:17.570Z,58.22
2022-08-25T19:01:24.643Z,58.18
2022-08-25T19:06:32.012Z,58.19
2022-08-25T19:11:39.070Z,58.23
2022-08-25T19:16:46.031Z,58.44
2022-08-25T19:21:52.599Z,58.19
2022-08-25T19:27:02.837Z,58.32
2022-08-25T19:32:09.730Z,58.22
2022-08-25T19:37:19.872Z,58.14
2022-08-25T19:42:35.185Z,58.30
2022-08-25T19:47:45.352Z,58.11
2022-08-25T19:52:52.268Z,58.22
2022-08-25T19:57:58.970Z,58.25
2022-08-25T20:03:06.057Z,58.19
2022-08-25T20:08:12.973Z,58.39
2022-08-25T20:13:19.840Z,58.44
2022-08-25T20:18:26.560Z,58.52
2022-08-25T20:23:50.437Z,58.37
2022-08-25T20:28:57.330Z,58.45
2022-08-25T20:34:04.263Z,58.43
2022-08-25T20:39:11.650Z,58.15
2022-08-25T20:44:18.984Z,58.29
2022-08-25T20:49:31.709Z,58.07
2022-08-25T20:54:49.402Z,58.23
2022-08-25T20:59:57.402Z,58.02
2022-08-25T21:05:04.170Z,58.54
2022-08-25T21:10:14.236Z,58.22
2022-08-25T21:15:21.654Z,58.18
2022-08-25T21:20:28.611Z,58.05
2022-08-25T21:25:39.971Z,58.17
2022-08-25T21:30:47.207Z,58.33
2022-08-25T21:35:54.136Z,58.12
2022-08-25T21:41:01.029Z,58.20
2022-08-25T21:46:08.453Z,58.17
2022-08-25T21:51:16.020Z,58.26
2022-08-25T21:56:23.150Z,58.27
2022-08-25T22:01:34.038Z,58.22
2022-08-25T22:06:41.430Z,58.29
2022-08-25T22:11:51.190Z,58.18
2022-08-25T22:16:58.046Z,58.30
2022-08-25T22:22:04.850Z,58.33
2022-08-25T22:27:15.662Z,58.18
2022-08-25T22:32:23.994Z,58.16
2022-08-25T22:37:30.919Z,58.21
2022-08-25T22:42:47.401Z,58.17
2022-08-25T22:47:55.711Z,58.23
2022-08-25T22:53:02.451Z,58.21
2022-08-25T22:58:11.843Z,58.28
2022-08-25T23:03:20.466Z,58.29
2022-08-25T23:08:39.191Z,58.37
2022-08-25T23:13:48.309Z,58.24
2022-08-25T23:18:55.010Z,58.26
2022-08-25T23:24:01.919Z,58.33
2022-08-25T23:29:18.495Z,58.24
2022-08-25T23:34:26.771Z,58.20
2022-08-25T23:39:35.533Z,58.21
2022-08-25T23:44:46.010Z,58.29
2022-08-25T23:49:52.770Z,58.47
2022-08-25T23:54:59.360Z,58.22
